»·PEaware :: AAL594 KSNA-KPHX

AAL594 :: KSNA-KPHX

FLIGHT INFORMATION

Flight Status: Arrived
Operator:
American Airlines
More flights by this operator :: More flights under this callsign
Pilot: Justin S. (10202)
Aircraft: AIRBUS A320
(A320)
More flights by this aircraft type
Origin: KSNA John Wayne-Orange Co
United States
Destination: KPHX Phoenix Sky Harbor Intl
United States
More flights between these airports :: More routes between these airports
Route: + PIGGN2 CNERY BLH HYDRR1
File this flight plan on PilotEdge
Remarks:
Altitude:
(Current/Filed)
35,000ft
Speed:
(Current/Filed)
367kts
Departed: 09-Jan-18 02:01 PM
Arrived: 09-Jan-18 02:53 PM
Distance/Time
Traveled:
294nm/0:52
Distance/Time
To Go:
Arrived

Flight Plot

Page will automatically refresh every two minutes.

Flight plan parsing failed; only flown route is shown


Map Options




Map Legend


Flown Route
Filed Route
Departure Airport
Arrival Airport
Navaid (VOR, NDB)
Fix

Horizontal Profiles

Position Reports

Time Latitude Longitude Heading Altitude Ground
Speed
09-Jan-18 13:17 33.680364 -117.861711 116 70ft 0kts
09-Jan-18 13:18 33.680364 -117.861711 116 70ft 0kts
09-Jan-18 13:19 33.680363 -117.861711 116 70ft 0kts
09-Jan-18 13:20 33.680363 -117.861711 116 70ft 0kts
09-Jan-18 13:21 33.680363 -117.861711 116 70ft 0kts
09-Jan-18 13:22 33.680363 -117.861711 116 70ft 0kts
09-Jan-18 13:23 33.680363 -117.861711 116 70ft 0kts
09-Jan-18 13:24 33.680363 -117.861711 116 70ft 0kts
09-Jan-18 13:25 33.680363 -117.861711 116 70ft 0kts
09-Jan-18 13:26 33.680363 -117.861711 116 70ft 0kts
09-Jan-18 13:27 33.680363 -117.861711 116 70ft 0kts
09-Jan-18 13:28 33.680363 -117.861711 116 70ft 0kts
09-Jan-18 13:29 33.680363 -117.861711 116 70ft 0kts
09-Jan-18 13:30 33.680363 -117.861711 116 70ft 0kts
09-Jan-18 13:31 33.680363 -117.861711 116 70ft 0kts
09-Jan-18 13:32 33.680363 -117.861711 116 70ft 0kts
09-Jan-18 13:33 33.680363 -117.861711 116 70ft 0kts
09-Jan-18 13:34 33.680363 -117.861711 116 70ft 0kts
09-Jan-18 13:35 33.680363 -117.861711 116 70ft 0kts
09-Jan-18 13:36 33.680363 -117.861711 116 70ft 0kts
09-Jan-18 13:37 33.680363 -117.861711 116 70ft 0kts
09-Jan-18 13:38 33.680363 -117.861711 116 70ft 0kts
09-Jan-18 13:39 33.680363 -117.861711 116 70ft 0kts
09-Jan-18 13:40 33.680363 -117.861711 116 70ft 0kts
09-Jan-18 13:41 33.680449 -117.861918 116 70ft 2kts
09-Jan-18 13:42 33.680702 -117.862532 116 70ft 0kts
09-Jan-18 13:43 33.680702 -117.862532 116 70ft 0kts
09-Jan-18 13:44 33.680702 -117.862532 116 70ft 0kts
09-Jan-18 13:45 33.680702 -117.862531 116 70ft 0kts
09-Jan-18 13:46 33.680701 -117.862530 116 70ft 0kts
09-Jan-18 13:47 33.680701 -117.862529 116 70ft 0kts
09-Jan-18 13:48 33.680701 -117.862528 116 70ft 0kts
09-Jan-18 13:49 33.680700 -117.862528 116 70ft 0kts
09-Jan-18 13:50 33.680700 -117.862527 116 70ft 0kts
09-Jan-18 13:51 33.680700 -117.862526 116 70ft 0kts
09-Jan-18 13:52 33.680699 -117.862525 116 70ft 0kts
09-Jan-18 13:53 33.680699 -117.862524 116 70ft 0kts
09-Jan-18 13:54 33.680699 -117.862523 116 70ft 0kts
09-Jan-18 13:55 33.680698 -117.862523 116 70ft 0kts
09-Jan-18 13:56 33.680698 -117.862522 116 70ft 0kts
09-Jan-18 13:57 33.680698 -117.862521 116 70ft 0kts
09-Jan-18 13:58 33.680697 -117.862520 116 70ft 0kts
09-Jan-18 13:59 33.680697 -117.862519 116 70ft 0kts
09-Jan-18 14:00 33.680697 -117.862519 116 70ft 0kts
09-Jan-18 14:01 33.680696 -117.862518 116 70ft 0kts
09-Jan-18 14:02 33.680696 -117.862517 116 70ft 0kts
09-Jan-18 14:03 33.680589 -117.862534 213 70ft 2kts
09-Jan-18 14:04 33.680587 -117.862999 296 70ft 0kts
09-Jan-18 14:05 33.680855 -117.863599 298 70ft 6kts
09-Jan-18 14:06 33.681332 -117.865300 209 70ft 0kts
09-Jan-18 14:07 33.672089 -117.871131 207 71ft 128kts
09-Jan-18 14:08 33.636108 -117.889663 188 1943ft 148kts
09-Jan-18 14:09 33.586456 -117.897044 185 3317ft 218kts
09-Jan-18 14:10 33.523571 -117.868796 150 5575ft 272kts
09-Jan-18 14:11 33.481901 -117.793482 112 8680ft 286kts
09-Jan-18 14:12 33.482656 -117.696460 69 10947ft 318kts
09-Jan-18 14:13 33.530101 -117.595902 59 12246ft 372kts
09-Jan-18 14:14 33.575297 -117.483221 84 14540ft 383kts
09-Jan-18 14:15 33.544999 -117.361451 112 16713ft 390kts
09-Jan-18 14:16 33.507037 -117.237272 103 18676ft 403kts
09-Jan-18 14:17 33.502260 -117.100674 91 20335ft 419kts
09-Jan-18 14:18 33.499115 -116.958448 91 21867ft 433kts
09-Jan-18 14:19 33.496834 -116.812156 90 23261ft 446kts
09-Jan-18 14:20 33.495268 -116.661707 90 24515ft 458kts
09-Jan-18 14:21 33.493241 -116.506285 90 25620ft 472kts
09-Jan-18 14:22 33.490983 -116.346892 90 26656ft 486kts
09-Jan-18 14:23 33.488420 -116.182552 90 27628ft 499kts
09-Jan-18 14:24 33.491685 -116.015180 74 28530ft 509kts
09-Jan-18 14:25 33.539126 -115.854437 67 29438ft 517kts
09-Jan-18 14:26 33.585891 -115.691242 67 30772ft 515kts
09-Jan-18 14:27 33.629137 -115.527500 84 31100ft 520kts
09-Jan-18 14:28 33.610348 -115.355838 91 31118ft 521kts
09-Jan-18 14:29 33.608470 -115.182057 92 31126ft 521kts
09-Jan-18 14:30 33.602884 -115.008435 90 31092ft 522kts
09-Jan-18 14:31 33.598175 -114.833828 91 31119ft 522kts
09-Jan-18 14:32 33.577518 -114.662225 104 29999ft 521kts
09-Jan-18 14:33 33.544078 -114.495496 101 27637ft 504kts
09-Jan-18 14:34 33.512815 -114.335283 102 25152ft 484kts
09-Jan-18 14:35 33.482684 -114.182729 101 23160ft 452kts
09-Jan-18 14:36 33.454515 -114.041506 101 23113ft 421kts
09-Jan-18 14:37 33.427966 -113.909273 101 22939ft 387kts
09-Jan-18 14:38 33.403424 -113.786918 101 21940ft 371kts
09-Jan-18 14:39 33.379462 -113.668447 101 20944ft 362kts
09-Jan-18 14:40 33.355970 -113.552885 101 19875ft 353kts
09-Jan-18 14:41 33.333432 -113.439918 99 18766ft 344kts
09-Jan-18 14:42 33.314609 -113.329704 99 17669ft 335kts
09-Jan-18 14:43 33.295983 -113.221206 97 16519ft 330kts
09-Jan-18 14:44 33.280658 -113.113968 97 15454ft 325kts
09-Jan-18 14:45 33.275471 -113.007887 84 14241ft 317kts
09-Jan-18 14:46 33.278524 -112.903154 85 13020ft 312kts
09-Jan-18 14:47 33.287006 -112.801932 65 11797ft 302kts
09-Jan-18 14:48 33.321779 -112.711831 63 10622ft 294kts
09-Jan-18 14:49 33.355077 -112.623759 63 9574ft 288kts
09-Jan-18 14:50 33.387256 -112.539403 64 8661ft 259kts
09-Jan-18 14:51 33.414875 -112.464112 66 7343ft 242kts
09-Jan-18 14:52 33.429238 -112.391156 90 6835ft 208kts
09-Jan-18 14:53 33.430281 -112.325200 84 5851ft 199kts
09-Jan-18 14:54 33.436788 -112.258099 84 4651ft 201kts
09-Jan-18 14:55 33.439255 -112.191882 86 3716ft 198kts
09-Jan-18 14:56 33.440719 -112.132263 88 2941ft 168kts
09-Jan-18 14:57 33.440745 -112.079852 88 2089ft 149kts
09-Jan-18 14:58 33.440857 -112.031785 90 1250ft 144kts
09-Jan-18 14:59 33.440619 -112.005104 114 1149ft 14kts
09-Jan-18 15:00 33.439719 -112.004356 230 1149ft 2kts
09-Jan-18 15:01 33.439001 -112.003293 90 1149ft 13kts
09-Jan-18 15:02 33.438750 -111.997826 152 1149ft 10kts
09-Jan-18 15:03 33.437140 -111.997344 87 1149ft 0kts
09-Jan-18 15:04 33.437140 -111.997344 87 1149ft 0kts
09-Jan-18 15:05 33.437140 -111.997344 87 1149ft 0kts
09-Jan-18 15:06 33.437140 -111.997344 87 1149ft 0kts

Navigation Log

Ident Type
Flight plan parsing failed, navigation log unavailable